Terminal Aerodrome Forecast
Issued by NWS Albuquerque, NM

Home | Current Version | Previous Version | Text Only | Print | Product List | Glossary On
Versions: 1 2 3 4 5 6 7 8 9 10 11 12 13 14 15 16 17 18
000
FTUS45 KABQ 041145
TAFABQ
TAF
KABQ 041145Z 0412/0512 VRB03KT P6SM SCT080
     FM041900 21007KT P6SM VCSH BKN070
      TEMPO 0423/0503 -TSRA OVC040CB
     FM050300 24008KT P6SM VCSH OVC050
     FM050600 VRB04KT P6SM BKN060=

USA.gov is the U.S. government's official web portal to all federal, state and local government web resources and services.